sensor_id;sensor_type;location;lat;lon;timestamp;pressure;altitude;pressure_sealevel;temperature;humidity
53960;BME280;39866;48.638;-2.020;2022-08-03T00:00:57;101489.09;;;23.06;68.33
53960;BME280;39866;48.638;-2.020;2022-08-03T00:03:22;101484.84;;;23.02;68.44
53960;BME280;39866;48.638;-2.020;2022-08-03T00:05:47;101496.81;;;22.99;68.35
53960;BME280;39866;48.638;-2.020;2022-08-03T00:08:13;101492.38;;;22.71;68.02
53960;BME280;39866;48.638;-2.020;2022-08-03T00:10:38;101492.25;;;22.33;68.92
53960;BME280;39866;48.638;-2.020;2022-08-03T00:13:03;101496.50;;;22.37;69.26
53960;BME280;39866;48.638;-2.020;2022-08-03T00:15:28;101494.50;;;22.54;68.97
53960;BME280;39866;48.638;-2.020;2022-08-03T00:17:54;101492.97;;;22.49;68.87
53960;BME280;39866;48.638;-2.020;2022-08-03T00:20:22;101487.69;;;22.19;70.15
53960;BME280;39866;48.638;-2.020;2022-08-03T00:22:48;101489.28;;;22.36;69.72
53960;BME280;39866;48.638;-2.020;2022-08-03T00:25:13;101492.22;;;22.60;69.46
53960;BME280;39866;48.638;-2.020;2022-08-03T00:27:38;101484.13;;;22.73;69.08
53960;BME280;39866;48.638;-2.020;2022-08-03T00:30:04;101483.78;;;22.78;69.40
53960;BME280;39866;48.638;-2.020;2022-08-03T00:32:29;101481.09;;;22.78;68.49
53960;BME280;39866;48.638;-2.020;2022-08-03T00:34:54;101484.75;;;22.91;68.14
53960;BME280;39866;48.638;-2.020;2022-08-03T00:37:19;101475.53;;;23.06;67.79
53960;BME280;39866;48.638;-2.020;2022-08-03T00:39:45;101481.19;;;23.16;67.32
53960;BME280;39866;48.638;-2.020;2022-08-03T00:42:11;101477.50;;;23.17;67.31
53960;BME280;39866;48.638;-2.020;2022-08-03T00:44:43;101475.75;;;23.03;67.67
53960;BME280;39866;48.638;-2.020;2022-08-03T00:47:08;101472.19;;;22.75;68.13
53960;BME280;39866;48.638;-2.020;2022-08-03T00:49:34;101465.78;;;22.77;68.43
53960;BME280;39866;48.638;-2.020;2022-08-03T00:52:00;101467.94;;;22.98;67.71
53960;BME280;39866;48.638;-2.020;2022-08-03T00:54:25;101461.88;;;22.81;67.37
53960;BME280;39866;48.638;-2.020;2022-08-03T00:56:51;101463.47;;;22.31;68.91
53960;BME280;39866;48.638;-2.020;2022-08-03T00:59:17;101454.78;;;22.65;69.39
53960;BME280;39866;48.638;-2.020;2022-08-03T01:01:42;101453.53;;;22.84;69.36
53960;BME280;39866;48.638;-2.020;2022-08-03T01:04:07;101450.81;;;22.84;68.94
53960;BME280;39866;48.638;-2.020;2022-08-03T01:06:33;101444.41;;;22.85;68.29
53960;BME280;39866;48.638;-2.020;2022-08-03T01:09:18;101438.75;;;22.75;68.11
53960;BME280;39866;48.638;-2.020;2022-08-03T01:11:49;101442.81;;;22.28;69.35
53960;BME280;39866;48.638;-2.020;2022-08-03T01:14:17;101443.38;;;22.60;68.60
53960;BME280;39866;48.638;-2.020;2022-08-03T01:19:30;101447.25;;;22.56;69.10
53960;BME280;39866;48.638;-2.020;2022-08-03T01:24:54;101433.78;;;22.42;69.71
53960;BME280;39866;48.638;-2.020;2022-08-03T01:27:22;101433.50;;;22.59;68.90
53960;BME280;39866;48.638;-2.020;2022-08-03T01:32:23;101423.97;;;22.66;68.66
53960;BME280;39866;48.638;-2.020;2022-08-03T01:34:51;101427.59;;;21.98;69.88
53960;BME280;39866;48.638;-2.020;2022-08-03T01:37:21;101435.34;;;21.90;70.42
53960;BME280;39866;48.638;-2.020;2022-08-03T01:39:48;101427.84;;;22.08;70.30
53960;BME280;39866;48.638;-2.020;2022-08-03T01:42:16;101427.34;;;21.89;70.30
53960;BME280;39866;48.638;-2.020;2022-08-03T01:44:42;101429.06;;;21.90;70.29
53960;BME280;39866;48.638;-2.020;2022-08-03T01:47:09;101421.78;;;21.90;70.26
53960;BME280;39866;48.638;-2.020;2022-08-03T01:49:39;101423.19;;;22.10;70.23
53960;BME280;39866;48.638;-2.020;2022-08-03T01:52:07;101425.31;;;22.19;70.51
53960;BME280;39866;48.638;-2.020;2022-08-03T01:54:34;101424.94;;;22.11;70.82
53960;BME280;39866;48.638;-2.020;2022-08-03T01:57:00;101424.25;;;22.22;70.34
53960;BME280;39866;48.638;-2.020;2022-08-03T01:59:26;101418.28;;;22.17;70.41
53960;BME280;39866;48.638;-2.020;2022-08-03T02:01:52;101410.34;;;22.14;70.25
53960;BME280;39866;48.638;-2.020;2022-08-03T02:04:18;101410.22;;;22.15;70.11
53960;BME280;39866;48.638;-2.020;2022-08-03T02:06:45;101410.38;;;22.12;70.07
53960;BME280;39866;48.638;-2.020;2022-08-03T02:09:11;101414.19;;;22.10;70.22
53960;BME280;39866;48.638;-2.020;2022-08-03T02:11:36;101415.25;;;22.21;70.83
53960;BME280;39866;48.638;-2.020;2022-08-03T02:14:03;101417.00;;;22.22;71.34
53960;BME280;39866;48.638;-2.020;2022-08-03T02:16:29;101413.09;;;22.27;70.73
53960;BME280;39866;48.638;-2.020;2022-08-03T02:18:55;101416.69;;;22.27;70.28
53960;BME280;39866;48.638;-2.020;2022-08-03T02:21:22;101409.16;;;22.18;70.12
53960;BME280;39866;48.638;-2.020;2022-08-03T02:23:47;101401.28;;;22.28;70.86
53960;BME280;39866;48.638;-2.020;2022-08-03T02:26:13;101399.25;;;22.44;70.41
53960;BME280;39866;48.638;-2.020;2022-08-03T02:28:40;101397.31;;;22.46;69.86
53960;BME280;39866;48.638;-2.020;2022-08-03T02:31:10;101405.22;;;22.49;70.68
53960;BME280;39866;48.638;-2.020;2022-08-03T02:33:37;101402.25;;;22.54;70.59
53960;BME280;39866;48.638;-2.020;2022-08-03T02:36:04;101394.16;;;22.39;70.58
53960;BME280;39866;48.638;-2.020;2022-08-03T02:38:32;101396.53;;;22.44;70.24
53960;BME280;39866;48.638;-2.020;2022-08-03T02:40:58;101390.78;;;22.36;70.12
53960;BME280;39866;48.638;-2.020;2022-08-03T02:43:25;101387.66;;;22.42;69.45
53960;BME280;39866;48.638;-2.020;2022-08-03T02:45:50;101381.78;;;22.48;69.69
53960;BME280;39866;48.638;-2.020;2022-08-03T02:48:17;101387.38;;;22.59;69.40
53960;BME280;39866;48.638;-2.020;2022-08-03T02:50:44;101388.09;;;22.61;69.18
53960;BME280;39866;48.638;-2.020;2022-08-03T02:53:11;101387.69;;;22.67;69.68
53960;BME280;39866;48.638;-2.020;2022-08-03T02:55:36;101377.38;;;22.72;69.60
53960;BME280;39866;48.638;-2.020;2022-08-03T02:58:03;101378.16;;;22.74;69.60
53960;BME280;39866;48.638;-2.020;2022-08-03T03:00:29;101388.59;;;22.81;69.86
53960;BME280;39866;48.638;-2.020;2022-08-03T03:02:58;101384.53;;;22.61;69.93
53960;BME280;39866;48.638;-2.020;2022-08-03T03:05:24;101387.63;;;22.29;70.32
53960;BME280;39866;48.638;-2.020;2022-08-03T03:07:49;101390.09;;;22.32;70.08
53960;BME280;39866;48.638;-2.020;2022-08-03T03:10:15;101389.56;;;22.27;70.17
53960;BME280;39866;48.638;-2.020;2022-08-03T03:12:40;101388.38;;;22.31;69.85
53960;BME280;39866;48.638;-2.020;2022-08-03T03:15:06;101388.88;;;22.23;70.01
53960;BME280;39866;48.638;-2.020;2022-08-03T03:17:32;101387.16;;;22.08;70.60
53960;BME280;39866;48.638;-2.020;2022-08-03T03:19:58;101384.66;;;22.19;70.08
53960;BME280;39866;48.638;-2.020;2022-08-03T03:22:24;101384.38;;;22.37;69.32
53960;BME280;39866;48.638;-2.020;2022-08-03T03:24:50;101385.63;;;22.18;69.54
53960;BME280;39866;48.638;-2.020;2022-08-03T03:27:17;101378.13;;;21.95;70.26
53960;BME280;39866;48.638;-2.020;2022-08-03T03:29:42;101375.41;;;21.95;70.36
53960;BME280;39866;48.638;-2.020;2022-08-03T03:32:08;101376.75;;;22.02;70.44
53960;BME280;39866;48.638;-2.020;2022-08-03T03:34:33;101374.97;;;22.15;70.46
53960;BME280;39866;48.638;-2.020;2022-08-03T03:37:00;101376.53;;;22.32;70.17
53960;BME280;39866;48.638;-2.020;2022-08-03T03:39:25;101372.06;;;22.18;69.87
53960;BME280;39866;48.638;-2.020;2022-08-03T03:41:50;101368.41;;;22.05;71.01
53960;BME280;39866;48.638;-2.020;2022-08-03T03:44:16;101372.06;;;22.04;71.07
53960;BME280;39866;48.638;-2.020;2022-08-03T03:46:41;101367.66;;;22.30;70.57
53960;BME280;39866;48.638;-2.020;2022-08-03T03:49:06;101359.84;;;22.25;70.57
53960;BME280;39866;48.638;-2.020;2022-08-03T03:51:32;101367.19;;;22.23;70.97
53960;BME280;39866;48.638;-2.020;2022-08-03T03:53:58;101371.28;;;22.16;71.03
53960;BME280;39866;48.638;-2.020;2022-08-03T03:56:24;101371.00;;;22.07;71.46
53960;BME280;39866;48.638;-2.020;2022-08-03T03:58:49;101366.53;;;22.20;70.80
53960;BME280;39866;48.638;-2.020;2022-08-03T04:01:15;101373.16;;;22.29;70.93
53960;BME280;39866;48.638;-2.020;2022-08-03T04:03:41;101365.47;;;22.22;71.22
53960;BME280;39866;48.638;-2.020;2022-08-03T04:06:06;101371.28;;;22.16;71.49
53960;BME280;39866;48.638;-2.020;2022-08-03T04:08:50;101365.50;;;22.35;71.18
53960;BME280;39866;48.638;-2.020;2022-08-03T04:11:35;101375.69;;;22.05;70.88
53960;BME280;39866;48.638;-2.020;2022-08-03T04:14:04;101369.59;;;22.01;71.17
53960;BME280;39866;48.638;-2.020;2022-08-03T04:16:33;101360.69;;;21.72;72.12
53960;BME280;39866;48.638;-2.020;2022-08-03T04:19:03;101367.53;;;21.77;71.94
53960;BME280;39866;48.638;-2.020;2022-08-03T04:21:30;101369.22;;;21.93;71.89
53960;BME280;39866;48.638;-2.020;2022-08-03T04:24:01;101372.00;;;22.06;71.24
53960;BME280;39866;48.638;-2.020;2022-08-03T04:26:28;101361.03;;;22.07;71.13
53960;BME280;39866;48.638;-2.020;2022-08-03T04:28:55;101358.16;;;21.96;71.44
53960;BME280;39866;48.638;-2.020;2022-08-03T04:31:21;101360.84;;;22.10;71.37
53960;BME280;39866;48.638;-2.020;2022-08-03T04:33:47;101355.91;;;22.02;71.46
53960;BME280;39866;48.638;-2.020;2022-08-03T04:36:15;101360.94;;;22.09;71.40
53960;BME280;39866;48.638;-2.020;2022-08-03T04:38:52;101362.44;;;22.27;71.13
53960;BME280;39866;48.638;-2.020;2022-08-03T04:41:18;101372.63;;;22.23;71.04
53960;BME280;39866;48.638;-2.020;2022-08-03T04:43:44;101368.91;;;22.24;70.45
53960;BME280;39866;48.638;-2.020;2022-08-03T04:46:11;101361.44;;;22.01;70.95
53960;BME280;39866;48.638;-2.020;2022-08-03T04:48:37;101363.56;;;21.96;70.30
53960;BME280;39866;48.638;-2.020;2022-08-03T04:51:03;101359.63;;;21.87;70.66
53960;BME280;39866;48.638;-2.020;2022-08-03T04:53:29;101362.28;;;21.89;71.42
53960;BME280;39866;48.638;-2.020;2022-08-03T04:55:54;101371.13;;;22.05;71.20
53960;BME280;39866;48.638;-2.020;2022-08-03T04:58:19;101364.53;;;22.09;71.31
53960;BME280;39866;48.638;-2.020;2022-08-03T05:00:44;101364.91;;;22.03;71.38
53960;BME280;39866;48.638;-2.020;2022-08-03T05:03:10;101363.56;;;21.96;72.08
53960;BME280;39866;48.638;-2.020;2022-08-03T05:05:35;101366.97;;;21.72;72.39
53960;BME280;39866;48.638;-2.020;2022-08-03T05:08:00;101366.28;;;21.69;72.76
53960;BME280;39866;48.638;-2.020;2022-08-03T05:10:25;101369.97;;;21.68;72.38
53960;BME280;39866;48.638;-2.020;2022-08-03T05:12:50;101374.84;;;21.90;71.87
53960;BME280;39866;48.638;-2.020;2022-08-03T05:15:16;101368.91;;;21.97;71.71
53960;BME280;39866;48.638;-2.020;2022-08-03T05:17:41;101373.97;;;21.89;72.64
53960;BME280;39866;48.638;-2.020;2022-08-03T05:20:06;101376.03;;;21.71;73.06
53960;BME280;39866;48.638;-2.020;2022-08-03T05:22:32;101377.63;;;21.47;73.18
53960;BME280;39866;48.638;-2.020;2022-08-03T05:24:57;101372.50;;;21.57;73.06
53960;BME280;39866;48.638;-2.020;2022-08-03T05:27:23;101379.53;;;21.73;73.35
53960;BME280;39866;48.638;-2.020;2022-08-03T05:29:49;101380.47;;;21.87;73.03
53960;BME280;39866;48.638;-2.020;2022-08-03T05:32:14;101383.97;;;21.89;73.52
53960;BME280;39866;48.638;-2.020;2022-08-03T05:34:40;101387.66;;;21.73;73.78
53960;BME280;39866;48.638;-2.020;2022-08-03T05:37:05;101377.94;;;21.84;73.44
53960;BME280;39866;48.638;-2.020;2022-08-03T05:39:31;101376.63;;;21.76;72.70
53960;BME280;39866;48.638;-2.020;2022-08-03T05:41:56;101382.19;;;21.88;73.01
53960;BME280;39866;48.638;-2.020;2022-08-03T05:44:21;101382.19;;;21.88;72.92
53960;BME280;39866;48.638;-2.020;2022-08-03T05:46:49;101383.16;;;21.87;72.45
53960;BME280;39866;48.638;-2.020;2022-08-03T05:49:14;101376.56;;;21.91;72.09
53960;BME280;39866;48.638;-2.020;2022-08-03T05:51:39;101375.81;;;21.89;71.75
53960;BME280;39866;48.638;-2.020;2022-08-03T05:54:05;101375.09;;;21.99;71.33
53960;BME280;39866;48.638;-2.020;2022-08-03T05:56:30;101383.91;;;22.17;71.06
53960;BME280;39866;48.638;-2.020;2022-08-03T05:58:55;101379.34;;;22.18;71.23
53960;BME280;39866;48.638;-2.020;2022-08-03T06:01:20;101374.88;;;22.17;71.47
53960;BME280;39866;48.638;-2.020;2022-08-03T06:03:46;101371.56;;;21.85;72.13
53960;BME280;39866;48.638;-2.020;2022-08-03T06:06:11;101379.69;;;22.12;71.97
53960;BME280;39866;48.638;-2.020;2022-08-03T06:08:37;101384.25;;;22.11;71.98
53960;BME280;39866;48.638;-2.020;2022-08-03T06:11:02;101383.69;;;22.06;72.41
53960;BME280;39866;48.638;-2.020;2022-08-03T06:13:27;101387.16;;;22.22;72.21
53960;BME280;39866;48.638;-2.020;2022-08-03T06:15:53;101393.06;;;22.29;71.60
53960;BME280;39866;48.638;-2.020;2022-08-03T06:18:18;101382.19;;;22.29;70.63
53960;BME280;39866;48.638;-2.020;2022-08-03T06:23:09;101383.72;;;22.33;70.51
53960;BME280;39866;48.638;-2.020;2022-08-03T06:25:34;101385.25;;;22.37;69.96
53960;BME280;39866;48.638;-2.020;2022-08-03T06:27:59;101389.38;;;22.43;70.06
53960;BME280;39866;48.638;-2.020;2022-08-03T06:30:25;101391.31;;;22.41;70.42
53960;BME280;39866;48.638;-2.020;2022-08-03T06:32:50;101389.16;;;22.33;71.30
53960;BME280;39866;48.638;-2.020;2022-08-03T06:35:15;101389.75;;;22.24;71.60
53960;BME280;39866;48.638;-2.020;2022-08-03T06:37:41;101385.47;;;22.34;71.54
53960;BME280;39866;48.638;-2.020;2022-08-03T06:40:07;101385.69;;;22.44;71.52
53960;BME280;39866;48.638;-2.020;2022-08-03T06:42:33;101378.53;;;22.43;71.48
53960;BME280;39866;48.638;-2.020;2022-08-03T06:44:58;101379.88;;;22.50;71.35
53960;BME280;39866;48.638;-2.020;2022-08-03T06:47:23;101380.75;;;22.63;70.94
53960;BME280;39866;48.638;-2.020;2022-08-03T06:49:48;101374.25;;;22.66;71.03
53960;BME280;39866;48.638;-2.020;2022-08-03T06:52:13;101380.97;;;22.73;70.83
53960;BME280;39866;48.638;-2.020;2022-08-03T06:54:39;101381.75;;;22.75;70.35
53960;BME280;39866;48.638;-2.020;2022-08-03T06:57:04;101389.78;;;22.77;70.47
53960;BME280;39866;48.638;-2.020;2022-08-03T06:59:30;101380.34;;;22.82;70.24
53960;BME280;39866;48.638;-2.020;2022-08-03T07:01:55;101388.56;;;22.68;69.24
53960;BME280;39866;48.638;-2.020;2022-08-03T07:04:20;101392.47;;;22.77;69.65
53960;BME280;39866;48.638;-2.020;2022-08-03T07:06:45;101389.88;;;22.62;69.61
53960;BME280;39866;48.638;-2.020;2022-08-03T07:09:11;101398.28;;;22.45;69.67
53960;BME280;39866;48.638;-2.020;2022-08-03T07:11:36;101398.06;;;22.48;69.88
53960;BME280;39866;48.638;-2.020;2022-08-03T07:14:01;101397.69;;;22.27;70.25
53960;BME280;39866;48.638;-2.020;2022-08-03T07:16:26;101403.00;;;22.29;69.96
53960;BME280;39866;48.638;-2.020;2022-08-03T07:18:52;101414.75;;;22.29;69.99
53960;BME280;39866;48.638;-2.020;2022-08-03T07:21:17;101417.75;;;22.24;70.04
53960;BME280;39866;48.638;-2.020;2022-08-03T07:23:42;101405.94;;;22.11;70.42
53960;BME280;39866;48.638;-2.020;2022-08-03T07:26:07;101407.13;;;22.21;70.06
53960;BME280;39866;48.638;-2.020;2022-08-03T07:28:32;101401.97;;;22.44;69.93
53960;BME280;39866;48.638;-2.020;2022-08-03T07:30:58;101409.09;;;22.32;70.63
53960;BME280;39866;48.638;-2.020;2022-08-03T07:33:23;101400.13;;;22.44;70.83
53960;BME280;39866;48.638;-2.020;2022-08-03T07:35:48;101403.66;;;22.32;71.85
53960;BME280;39866;48.638;-2.020;2022-08-03T07:38:14;101402.81;;;22.32;72.70
53960;BME280;39866;48.638;-2.020;2022-08-03T07:40:40;101415.66;;;22.15;73.47
53960;BME280;39866;48.638;-2.020;2022-08-03T07:43:05;101422.31;;;22.24;73.03
53960;BME280;39866;48.638;-2.020;2022-08-03T07:45:30;101424.69;;;22.29;72.71
53960;BME280;39866;48.638;-2.020;2022-08-03T07:47:55;101425.63;;;22.15;72.53
53960;BME280;39866;48.638;-2.020;2022-08-03T07:50:21;101424.09;;;22.38;71.69
53960;BME280;39866;48.638;-2.020;2022-08-03T07:52:46;101431.72;;;22.04;71.87
53960;BME280;39866;48.638;-2.020;2022-08-03T07:55:12;101435.41;;;22.03;72.58
53960;BME280;39866;48.638;-2.020;2022-08-03T07:57:37;101424.94;;;22.25;72.45
53960;BME280;39866;48.638;-2.020;2022-08-03T08:00:06;101424.09;;;22.38;71.95
53960;BME280;39866;48.638;-2.020;2022-08-03T08:02:35;101424.06;;;22.25;72.13
53960;BME280;39866;48.638;-2.020;2022-08-03T08:05:00;101418.78;;;21.95;73.57
53960;BME280;39866;48.638;-2.020;2022-08-03T08:07:25;101425.91;;;22.10;73.45
53960;BME280;39866;48.638;-2.020;2022-08-03T08:09:51;101431.16;;;21.99;73.61
53960;BME280;39866;48.638;-2.020;2022-08-03T08:12:16;101434.59;;;22.30;72.87
53960;BME280;39866;48.638;-2.020;2022-08-03T08:14:41;101430.09;;;22.43;72.26
53960;BME280;39866;48.638;-2.020;2022-08-03T08:17:09;101424.88;;;22.13;72.55
53960;BME280;39866;48.638;-2.020;2022-08-03T08:19:35;101422.31;;;22.24;71.96
53960;BME280;39866;48.638;-2.020;2022-08-03T08:22:00;101421.28;;;21.98;73.28
53960;BME280;39866;48.638;-2.020;2022-08-03T08:24:25;101422.22;;;22.11;73.31
53960;BME280;39866;48.638;-2.020;2022-08-03T08:26:50;101425.44;;;22.18;72.69
53960;BME280;39866;48.638;-2.020;2022-08-03T08:29:15;101434.44;;;22.18;72.52
53960;BME280;39866;48.638;-2.020;2022-08-03T08:31:41;101426.50;;;22.15;71.97
53960;BME280;39866;48.638;-2.020;2022-08-03T08:34:06;101426.91;;;22.09;71.96
53960;BME280;39866;48.638;-2.020;2022-08-03T08:36:32;101428.81;;;22.21;71.97
53960;BME280;39866;48.638;-2.020;2022-08-03T08:38:57;101429.69;;;22.22;71.91
53960;BME280;39866;48.638;-2.020;2022-08-03T08:41:23;101435.47;;;22.30;71.17
53960;BME280;39866;48.638;-2.020;2022-08-03T08:43:48;101438.84;;;22.34;70.40
53960;BME280;39866;48.638;-2.020;2022-08-03T08:46:13;101437.56;;;22.39;70.82
53960;BME280;39866;48.638;-2.020;2022-08-03T08:48:41;101436.69;;;22.39;71.00
53960;BME280;39866;48.638;-2.020;2022-08-03T08:51:08;101434.91;;;22.25;71.86
53960;BME280;39866;48.638;-2.020;2022-08-03T08:53:34;101437.50;;;22.27;71.94
53960;BME280;39866;48.638;-2.020;2022-08-03T08:56:00;101431.47;;;22.36;71.68
53960;BME280;39866;48.638;-2.020;2022-08-03T08:58:29;101443.22;;;22.49;70.85
53960;BME280;39866;48.638;-2.020;2022-08-03T09:00:56;101444.66;;;22.28;71.06
53960;BME280;39866;48.638;-2.020;2022-08-03T09:03:21;101445.03;;;22.36;71.34
53960;BME280;39866;48.638;-2.020;2022-08-03T09:05:47;101447.53;;;21.97;71.67
53960;BME280;39866;48.638;-2.020;2022-08-03T09:08:12;101447.50;;;22.26;71.25
53960;BME280;39866;48.638;-2.020;2022-08-03T09:10:38;101447.75;;;22.36;70.17
53960;BME280;39866;48.638;-2.020;2022-08-03T09:13:03;101455.56;;;22.40;70.86
53960;BME280;39866;48.638;-2.020;2022-08-03T09:15:29;101443.69;;;22.29;70.46
53960;BME280;39866;48.638;-2.020;2022-08-03T09:17:59;101448.59;;;22.09;71.62
53960;BME280;39866;48.638;-2.020;2022-08-03T09:20:25;101442.50;;;22.33;70.75
53960;BME280;39866;48.638;-2.020;2022-08-03T09:23:04;101446.25;;;22.44;70.31
53960;BME280;39866;48.638;-2.020;2022-08-03T09:25:47;101448.75;;;22.20;69.98
53960;BME280;39866;48.638;-2.020;2022-08-03T09:28:17;101447.13;;;22.45;68.79
53960;BME280;39866;48.638;-2.020;2022-08-03T09:30:44;101448.75;;;22.47;67.59
53960;BME280;39866;48.638;-2.020;2022-08-03T09:33:10;101451.06;;;22.54;68.12
53960;BME280;39866;48.638;-2.020;2022-08-03T09:35:40;101445.88;;;22.63;67.64
53960;BME280;39866;48.638;-2.020;2022-08-03T09:38:10;101445.72;;;22.52;67.58
53960;BME280;39866;48.638;-2.020;2022-08-03T09:40:36;101438.63;;;22.77;67.09
53960;BME280;39866;48.638;-2.020;2022-08-03T09:43:01;101433.06;;;22.65;67.06
53960;BME280;39866;48.638;-2.020;2022-08-03T09:45:26;101440.94;;;22.43;67.60
53960;BME280;39866;48.638;-2.020;2022-08-03T09:47:52;101437.72;;;22.23;67.15
53960;BME280;39866;48.638;-2.020;2022-08-03T09:50:17;101441.75;;;22.31;66.83
53960;BME280;39866;48.638;-2.020;2022-08-03T09:52:42;101435.78;;;22.11;66.95
53960;BME280;39866;48.638;-2.020;2022-08-03T09:57:33;101425.31;;;22.46;66.62
53960;BME280;39866;48.638;-2.020;2022-08-03T10:00:05;101423.72;;;22.57;66.13
53960;BME280;39866;48.638;-2.020;2022-08-03T10:02:31;101422.22;;;22.65;66.23
53960;BME280;39866;48.638;-2.020;2022-08-03T10:04:56;101420.41;;;22.79;66.06
53960;BME280;39866;48.638;-2.020;2022-08-03T10:07:22;101430.69;;;22.73;65.27
53960;BME280;39866;48.638;-2.020;2022-08-03T10:10:00;101433.53;;;22.72;65.84
53960;BME280;39866;48.638;-2.020;2022-08-03T10:12:26;101436.75;;;22.64;66.09
53960;BME280;39866;48.638;-2.020;2022-08-03T10:14:51;101427.56;;;22.67;65.56
53960;BME280;39866;48.638;-2.020;2022-08-03T10:17:17;101434.44;;;22.98;64.87
53960;BME280;39866;48.638;-2.020;2022-08-03T10:19:43;101432.31;;;23.03;64.76
53960;BME280;39866;48.638;-2.020;2022-08-03T10:22:15;101420.34;;;23.06;64.04
53960;BME280;39866;48.638;-2.020;2022-08-03T10:25:05;101428.81;;;23.01;64.77
53960;BME280;39866;48.638;-2.020;2022-08-03T10:27:32;101430.13;;;23.08;65.04
53960;BME280;39866;48.638;-2.020;2022-08-03T10:30:00;101425.91;;;23.17;64.29
53960;BME280;39866;48.638;-2.020;2022-08-03T10:35:14;101420.41;;;22.79;65.21
53960;BME280;39866;48.638;-2.020;2022-08-03T10:37:44;101425.69;;;23.07;64.64
53960;BME280;39866;48.638;-2.020;2022-08-03T10:40:13;101418.81;;;23.14;65.01
53960;BME280;39866;48.638;-2.020;2022-08-03T10:42:39;101426.75;;;23.17;64.83
53960;BME280;39866;48.638;-2.020;2022-08-03T10:45:06;101417.88;;;23.15;64.83
53960;BME280;39866;48.638;-2.020;2022-08-03T10:47:33;101419.47;;;23.31;64.63
53960;BME280;39866;48.638;-2.020;2022-08-03T10:49:59;101416.13;;;23.27;64.32
53960;BME280;39866;48.638;-2.020;2022-08-03T10:52:25;101422.53;;;23.01;65.06
53960;BME280;39866;48.638;-2.020;2022-08-03T10:54:50;101419.88;;;22.86;65.07
53960;BME280;39866;48.638;-2.020;2022-08-03T11:00:08;101413.22;;;22.78;65.84
53960;BME280;39866;48.638;-2.020;2022-08-03T11:05:28;101409.28;;;23.09;65.44
53960;BME280;39866;48.638;-2.020;2022-08-03T11:10:37;101409.06;;;22.99;65.32
53960;BME280;39866;48.638;-2.020;2022-08-03T11:13:06;101404.50;;;23.12;65.06
53960;BME280;39866;48.638;-2.020;2022-08-03T11:15:32;101409.28;;;22.96;64.97
53960;BME280;39866;48.638;-2.020;2022-08-03T11:18:07;101403.41;;;23.15;65.27
53960;BME280;39866;48.638;-2.020;2022-08-03T11:20:50;101406.34;;;23.24;65.06
53960;BME280;39866;48.638;-2.020;2022-08-03T11:23:17;101406.97;;;23.41;64.93
53960;BME280;39866;48.638;-2.020;2022-08-03T11:28:27;101404.59;;;23.36;64.52
53960;BME280;39866;48.638;-2.020;2022-08-03T11:30:52;101405.53;;;22.84;65.57
53960;BME280;39866;48.638;-2.020;2022-08-03T11:33:28;101406.53;;;23.34;64.75
53960;BME280;39866;48.638;-2.020;2022-08-03T11:35:57;101406.66;;;23.33;64.62
53960;BME280;39866;48.638;-2.020;2022-08-03T11:38:23;101397.09;;;23.40;64.65
53960;BME280;39866;48.638;-2.020;2022-08-03T11:40:52;101392.66;;;23.13;65.26
53960;BME280;39866;48.638;-2.020;2022-08-03T11:45:55;101393.19;;;23.31;64.51
53960;BME280;39866;48.638;-2.020;2022-08-03T11:48:20;101397.41;;;23.22;64.88
53960;BME280;39866;48.638;-2.020;2022-08-03T11:50:46;101392.66;;;23.13;66.04
53960;BME280;39866;48.638;-2.020;2022-08-03T11:53:12;101405.78;;;23.45;65.90
53960;BME280;39866;48.638;-2.020;2022-08-03T11:55:38;101399.56;;;23.56;65.50
53960;BME280;39866;48.638;-2.020;2022-08-03T11:58:05;101398.81;;;23.66;64.69
53960;BME280;39866;48.638;-2.020;2022-08-03T12:00:31;101400.34;;;23.45;64.33
53960;BME280;39866;48.638;-2.020;2022-08-03T12:03:01;101402.03;;;23.59;64.65
53960;BME280;39866;48.638;-2.020;2022-08-03T12:05:59;101406.88;;;23.30;64.71
53960;BME280;39866;48.638;-2.020;2022-08-03T12:10:52;101391.56;;;23.16;65.51
53960;BME280;39866;48.638;-2.020;2022-08-03T12:13:19;101397.19;;;23.26;64.52
53960;BME280;39866;48.638;-2.020;2022-08-03T12:15:49;101400.34;;;23.45;63.97
53960;BME280;39866;48.638;-2.020;2022-08-03T12:18:15;101404.22;;;23.54;63.78
53960;BME280;39866;48.638;-2.020;2022-08-03T12:20:42;101407.50;;;23.46;64.25
53960;BME280;39866;48.638;-2.020;2022-08-03T12:23:09;101398.03;;;23.39;64.79
53960;BME280;39866;48.638;-2.020;2022-08-03T12:25:35;101402.22;;;23.32;65.32
53960;BME280;39866;48.638;-2.020;2022-08-03T12:30:35;101390.22;;;23.72;64.58
53960;BME280;39866;48.638;-2.020;2022-08-03T12:33:14;101395.94;;;23.81;64.05
53960;BME280;39866;48.638;-2.020;2022-08-03T12:35:39;101390.03;;;23.87;63.32
53960;BME280;39866;48.638;-2.020;2022-08-03T12:38:05;101400.88;;;23.37;64.69
53960;BME280;39866;48.638;-2.020;2022-08-03T12:40:30;101404.47;;;23.25;64.88
53960;BME280;39866;48.638;-2.020;2022-08-03T12:42:56;101404.69;;;23.09;65.38
53960;BME280;39866;48.638;-2.020;2022-08-03T12:45:21;101394.91;;;23.45;65.06
53960;BME280;39866;48.638;-2.020;2022-08-03T12:52:49;101385.16;;;23.17;64.47
53960;BME280;39866;48.638;-2.020;2022-08-03T12:55:18;101390.13;;;23.48;64.38
53960;BME280;39866;48.638;-2.020;2022-08-03T12:57:43;101382.16;;;23.71;63.81
53960;BME280;39866;48.638;-2.020;2022-08-03T13:00:15;101390.56;;;23.92;62.92
53960;BME280;39866;48.638;-2.020;2022-08-03T13:02:41;101381.59;;;23.79;63.40
53960;BME280;39866;48.638;-2.020;2022-08-03T13:05:12;101390.97;;;23.49;64.07
53960;BME280;39866;48.638;-2.020;2022-08-03T13:07:41;101393.28;;;23.92;62.58
53960;BME280;39866;48.638;-2.020;2022-08-03T13:10:07;101387.84;;;23.92;62.79
53960;BME280;39866;48.638;-2.020;2022-08-03T13:12:44;101396.19;;;24.02;62.14
53960;BME280;39866;48.638;-2.020;2022-08-03T13:15:09;101401.63;;;23.65;63.53
53960;BME280;39866;48.638;-2.020;2022-08-03T13:17:34;101395.22;;;23.53;64.15